Time;durP1;ratioP1;P1;durP2;ratioP2;P2;SDS_P1;SDS_P2;PMS_P1;PMS_P2;Temp;Humidity;BMP_temperature;BMP_pressure;BME280_temperature;BME280_humidity;BME280_pressure;Samples;Min_cycle;Max_cycle;Signal;HPM_P1;HPM_P2
2021/12/08 00:01:20;;;;;;;4.17;3.13;;;6.50;99.90;;;;;;4883654;29;20416;-69
2021/12/08 00:03:47;;;;;;;3.53;3.22;;;6.50;99.90;;;;;;4899160;29;20512;-69
2021/12/08 00:06:12;;;;;;;3.37;3.07;;;6.70;99.90;;;;;;4900046;29;20230;-69
2021/12/08 00:08:39;;;;;;;3.87;3.57;;;6.30;99.90;;;;;;4899688;29;20991;-69
2021/12/08 00:13:50;;;;;;;4.97;3.42;;;6.20;99.90;;;;;;4899907;29;20748;-69
2021/12/08 00:16:16;;;;;;;3.53;3.28;;;6.30;99.90;;;;;;4900308;29;20570;-69
2021/12/08 00:18:47;;;;;;;3.50;3.30;;;6.30;99.90;;;;;;4899382;29;20188;-68
2021/12/08 00:21:13;;;;;;;5.77;3.60;;;6.30;99.90;;;;;;4900682;29;20180;-69
2021/12/08 00:23:39;;;;;;;3.30;3.00;;;6.50;99.90;;;;;;4899326;29;20421;-69
2021/12/08 00:26:05;;;;;;;2.83;2.73;;;6.60;99.90;;;;;;4900274;29;20825;-69
2021/12/08 00:28:32;;;;;;;3.40;3.20;;;6.60;99.90;;;;;;4899991;29;20781;-72
2021/12/08 00:31:00;;;;;;;3.20;2.90;;;6.40;99.90;;;;;;4899212;29;20419;-69
2021/12/08 00:33:30;;;;;;;3.40;3.20;;;6.40;99.90;;;;;;4882787;29;20815;-69
2021/12/08 00:35:58;;;;;;;3.50;3.10;;;6.40;99.90;;;;;;4899217;29;20416;-69
2021/12/08 00:38:24;;;;;;;3.77;3.47;;;6.40;99.90;;;;;;4899963;29;20427;-68
2021/12/08 00:40:51;;;;;;;3.20;2.90;;;6.50;99.90;;;;;;4898723;29;20409;-69
2021/12/08 00:43:18;;;;;;;4.20;3.80;;;6.40;99.90;;;;;;4899616;29;20428;-68
2021/12/08 00:45:45;;;;;;;3.20;3.00;;;6.30;99.90;;;;;;4882263;29;20421;-69
2021/12/08 00:48:10;;;;;;;3.63;3.33;;;6.30;99.90;;;;;;4899655;29;20511;-68
2021/12/08 00:50:38;;;;;;;3.30;3.10;;;6.30;99.90;;;;;;4898580;29;20872;-71
2021/12/08 00:53:05;;;;;;;3.37;3.17;;;6.20;99.90;;;;;;4899623;29;20198;-68
2021/12/08 00:55:31;;;;;;;3.30;3.10;;;6.20;99.90;;;;;;4899578;29;20424;-68
2021/12/08 00:57:57;;;;;;;3.17;2.97;;;6.10;99.90;;;;;;4897563;29;20960;-69
2021/12/08 01:00:29;;;;;;;3.77;3.47;;;6.40;99.90;;;;;;4882762;29;20467;-68
2021/12/08 01:02:55;;;;;;;4.07;3.77;;;6.30;99.90;;;;;;4898565;29;20468;-69
2021/12/08 01:05:30;;;;;;;3.10;2.90;;;6.20;99.90;;;;;;4883059;29;20400;-69
2021/12/08 01:07:55;;;;;;;3.73;3.47;;;6.10;99.90;;;;;;4881815;29;20745;-68
2021/12/08 01:10:24;;;;;;;3.87;3.57;;;6.10;99.90;;;;;;4899119;29;20408;-68
2021/12/08 01:12:51;;;;;;;3.30;3.10;;;6.20;99.90;;;;;;4898539;29;20412;-68
2021/12/08 01:15:18;;;;;;;3.50;3.20;;;6.00;99.90;;;;;;4899332;29;20176;-68
2021/12/08 01:17:44;;;;;;;3.07;2.87;;;6.40;99.90;;;;;;4898447;29;20441;-69
2021/12/08 01:20:14;;;;;;;3.20;2.90;;;6.10;99.90;;;;;;4899101;29;20854;-68
2021/12/08 01:22:40;;;;;;;3.10;2.90;;;6.40;99.90;;;;;;4898413;29;20420;-69
2021/12/08 01:25:06;;;;;;;3.63;3.30;;;6.30;99.90;;;;;;4899072;29;20797;-69
2021/12/08 01:27:33;;;;;;;4.50;3.63;;;6.20;99.90;;;;;;4898814;29;20219;-70
2021/12/08 01:30:00;;;;;;;3.78;3.10;;;6.30;99.90;;;;;;4898521;29;20184;-68
2021/12/08 01:32:26;;;;;;;3.40;3.10;;;6.20;99.90;;;;;;4899028;29;20626;-69
2021/12/08 01:34:53;;;;;;;3.73;3.43;;;6.30;99.90;;;;;;4898117;29;20476;-68
2021/12/08 01:37:20;;;;;;;3.83;3.17;;;6.30;99.90;;;;;;4898863;29;20425;-68
2021/12/08 01:39:46;;;;;;;3.40;3.10;;;6.40;99.90;;;;;;4881328;29;20961;-69
2021/12/08 01:42:17;;;;;;;3.13;2.93;;;6.30;99.90;;;;;;4898555;29;20437;-69
2021/12/08 01:47:28;;;;;;;2.97;2.78;;;6.30;99.90;;;;;;4898377;29;20507;-68
2021/12/08 01:49:55;;;;;;;3.47;3.17;;;6.40;99.90;;;;;;4897873;29;20184;-69
2021/12/08 01:52:21;;;;;;;3.03;2.85;;;6.50;99.90;;;;;;4898527;29;20424;-69
2021/12/08 01:54:47;;;;;;;3.43;3.13;;;6.60;99.90;;;;;;4897209;29;20187;-69
2021/12/08 01:57:14;;;;;;;2.95;2.85;;;6.60;99.90;;;;;;4898180;29;20449;-69
2021/12/08 01:59:39;;;;;;;3.30;3.00;;;6.50;99.90;;;;;;4898012;29;20244;-71
2021/12/08 02:02:05;;;;;;;3.00;2.90;;;6.50;99.90;;;;;;4898336;29;20419;-69
2021/12/08 02:04:31;;;;;;;3.13;2.97;;;6.50;99.90;;;;;;4898600;29;21068;-69
2021/12/08 02:06:58;;;;;;;4.10;3.80;;;6.60;99.90;;;;;;4880454;29;20906;-68
2021/12/08 02:09:24;;;;;;;3.50;3.25;;;6.50;99.90;;;;;;4898254;29;20417;-68
2021/12/08 02:11:54;;;;;;;3.40;3.20;;;6.50;99.90;;;;;;4897173;29;20224;-69
2021/12/08 02:14:20;;;;;;;3.10;2.90;;;6.60;99.90;;;;;;4897910;29;20456;-69
2021/12/08 02:16:47;;;;;;;3.00;2.80;;;6.50;99.90;;;;;;4897409;29;20775;-68
2021/12/08 02:19:13;;;;;;;3.43;3.10;;;6.60;99.90;;;;;;4898159;29;20417;-68
2021/12/08 02:21:41;;;;;;;5.13;3.10;;;6.60;99.90;;;;;;4897766;29;20417;-72
2021/12/08 02:24:10;;;;;;;3.50;3.20;;;6.60;99.90;;;;;;4897884;29;20425;-68
2021/12/08 02:26:38;;;;;;;4.00;3.70;;;6.60;99.90;;;;;;4897897;29;20932;-68
2021/12/08 02:29:08;;;;;;;2.90;2.80;;;6.50;99.90;;;;;;4897354;29;20416;-69
2021/12/08 02:31:44;;;;;;;3.27;3.07;;;6.40;99.90;;;;;;4897972;29;20536;-69
2021/12/08 02:48:10;;;;;;;3.90;3.63;;;6.70;99.90;;;;;;4897672;29;20409;-69
2021/12/08 02:50:40;;;;;;;3.70;3.40;;;6.90;99.90;;;;;;4897984;29;20464;-68
2021/12/08 02:53:09;;;;;;;3.53;3.33;;;6.80;99.90;;;;;;4896896;29;20224;-69
2021/12/08 02:55:35;;;;;;;4.00;3.70;;;6.80;99.90;;;;;;4897486;29;20418;-68
2021/12/08 02:58:02;;;;;;;3.90;3.70;;;6.70;99.90;;;;;;4896673;29;20416;-69
2021/12/08 03:00:31;;;;;;;3.33;3.17;;;6.80;99.90;;;;;;4897343;29;20432;-69
2021/12/08 03:02:59;;;;;;;4.17;3.87;;;6.80;99.90;;;;;;4896251;29;20481;-68
2021/12/08 03:05:25;;;;;;;3.87;3.57;;;6.80;99.90;;;;;;4897697;29;20431;-69
2021/12/08 03:07:51;;;;;;;3.20;3.00;;;6.80;99.90;;;;;;4895828;29;20474;-69
2021/12/08 03:10:20;;;;;;;3.10;3.00;;;6.90;99.90;;;;;;4897342;29;20533;-69
2021/12/08 03:12:46;;;;;;;3.70;3.50;;;7.00;99.90;;;;;;4896190;29;20429;-69
2021/12/08 03:15:13;;;;;;;3.90;3.70;;;6.90;99.90;;;;;;4896945;29;20504;-69
2021/12/08 03:17:39;;;;;;;4.10;3.80;;;6.90;99.90;;;;;;4896795;29;20449;-69
2021/12/08 03:20:11;;;;;;;7.07;3.80;;;7.00;99.90;;;;;;4895996;29;20992;-69
2021/12/08 03:22:42;;;;;;;3.77;3.57;;;7.00;99.90;;;;;;4897257;29;20762;-69
2021/12/08 03:25:12;;;;;;;4.03;3.73;;;7.00;99.90;;;;;;4896508;29;20549;-69
2021/12/08 03:27:45;;;;;;;4.60;4.30;;;7.00;99.90;;;;;;4897065;29;20457;-69
2021/12/08 03:30:19;;;;;;;4.37;4.07;;;6.70;99.90;;;;;;4897255;29;20424;-69
2021/12/08 03:32:45;;;;;;;4.50;4.20;;;6.80;99.90;;;;;;4896312;29;20425;-72
2021/12/08 03:35:14;;;;;;;4.40;4.00;;;6.80;99.90;;;;;;4896912;29;20911;-68
2021/12/08 03:37:43;;;;;;;4.23;4.00;;;6.90;99.90;;;;;;4880327;29;20228;-69
2021/12/08 03:40:13;;;;;;;4.30;4.00;;;6.80;99.90;;;;;;4896628;29;20591;-69
2021/12/08 03:42:41;;;;;;;4.37;4.07;;;6.80;99.90;;;;;;4896998;29;20557;-69
2021/12/08 03:45:13;;;;;;;4.53;4.23;;;6.80;99.90;;;;;;4896203;29;20462;-68
2021/12/08 03:47:43;;;;;;;4.80;4.40;;;6.80;99.90;;;;;;4897049;29;20511;-69
2021/12/08 03:50:12;;;;;;;4.30;4.00;;;7.00;99.90;;;;;;4896369;29;20467;-69
2021/12/08 03:52:38;;;;;;;4.27;4.07;;;7.10;99.90;;;;;;4896975;29;20502;-69
2021/12/08 03:55:08;;;;;;;4.77;4.37;;;7.30;99.90;;;;;;4896101;29;20425;-69
2021/12/08 03:57:33;;;;;;;4.40;4.10;;;7.30;99.90;;;;;;4896950;29;20426;-69
2021/12/08 03:59:59;;;;;;;4.30;3.90;;;7.50;99.90;;;;;;4879331;29;20430;-69
2021/12/08 04:02:25;;;;;;;4.57;4.20;;;7.50;99.90;;;;;;4897098;29;20182;-68
2021/12/08 04:04:51;;;;;;;4.70;4.40;;;7.50;99.90;;;;;;4896003;29;20429;-69
2021/12/08 04:07:18;;;;;;;5.20;4.80;;;7.40;99.90;;;;;;4896703;29;20691;-69
2021/12/08 04:09:48;;;;;;;4.53;4.13;;;7.40;99.90;;;;;;4896576;29;20771;-72
2021/12/08 04:12:17;;;;;;;4.90;4.50;;;7.30;99.90;;;;;;4879960;29;20438;-69
2021/12/08 04:14:50;;;;;;;5.60;4.03;;;7.40;99.90;;;;;;4879973;29;20833;-69
2021/12/08 04:17:24;;;;;;;4.87;4.57;;;7.40;99.90;;;;;;4896834;29;20410;-69
2021/12/08 04:19:50;;;;;;;4.60;4.30;;;7.40;99.90;;;;;;4898781;29;20411;-69
2021/12/08 04:22:30;;;;;;;4.20;4.00;;;7.40;99.90;;;;;;4900310;29;20435;-68
2021/12/08 04:24:58;;;;;;;4.93;4.53;;;7.30;99.90;;;;;;4899157;29;20411;-69
2021/12/08 04:27:28;;;;;;;4.60;4.20;;;7.50;99.90;;;;;;4900107;29;20488;-69
2021/12/08 04:29:54;;;;;;;4.57;4.27;;;7.40;99.90;;;;;;4899340;29;20528;-69
2021/12/08 04:32:24;;;;;;;5.27;4.87;;;7.40;99.90;;;;;;4899569;29;20459;-69
2021/12/08 04:34:54;;;;;;;4.40;4.10;;;7.50;99.90;;;;;;4899200;29;20426;-72
2021/12/08 04:37:28;;;;;;;5.13;4.63;;;7.50;99.90;;;;;;4899985;29;20407;-68
2021/12/08 04:43:00;;;;;;;5.30;4.90;;;7.60;99.90;;;;;;4899692;29;20435;-72
2021/12/08 04:46:47;;;;;;;4.83;4.50;;;7.70;99.90;;;;;;4899916;29;20407;-68
2021/12/08 05:07:03;;;;;;;6.57;6.17;;;7.80;99.90;;;;;;4899112;29;20519;-67
2021/12/08 05:09:36;;;;;;;5.63;5.30;;;7.80;99.90;;;;;;4899245;29;20470;-67
2021/12/08 05:12:16;;;;;;;4.50;4.10;;;7.60;99.90;;;;;;4898611;29;20486;-68
2021/12/08 05:14:52;;;;;;;4.70;4.40;;;7.60;99.90;;;;;;4882717;29;20465;-68
2021/12/08 05:17:41;;;;;;;6.40;5.90;;;7.60;99.90;;;;;;4899423;29;20498;-68
2021/12/08 05:20:31;;;;;;;6.10;5.63;;;7.60;99.90;;;;;;4898458;29;20747;-68
2021/12/08 05:23:03;;;;;;;5.20;4.90;;;7.50;99.90;;;;;;4898473;29;20913;-68
2021/12/08 05:25:32;;;;;;;5.03;4.63;;;7.40;99.90;;;;;;4899365;29;20410;-67
2021/12/08 05:28:01;;;;;;;6.10;5.40;;;7.30;99.90;;;;;;4897712;29;20502;-68
2021/12/08 05:30:34;;;;;;;5.43;5.07;;;7.50;99.90;;;;;;4898195;29;20407;-67
2021/12/08 05:33:01;;;;;;;5.20;4.70;;;7.40;99.90;;;;;;4898359;29;20454;-68
2021/12/08 05:35:28;;;;;;;5.57;5.10;;;7.40;99.90;;;;;;4898931;29;20435;-68
2021/12/08 05:37:55;;;;;;;6.20;5.60;;;7.40;99.90;;;;;;4897649;29;20434;-71
2021/12/08 05:40:29;;;;;;;5.73;5.33;;;7.40;99.90;;;;;;4899008;29;20429;-68
2021/12/08 05:42:55;;;;;;;7.20;6.50;;;7.30;99.90;;;;;;4898064;29;20849;-68
2021/12/08 05:45:22;;;;;;;5.60;5.10;;;7.30;99.90;;;;;;4898790;29;20439;-68
2021/12/08 05:47:49;;;;;;;5.77;5.40;;;7.40;99.90;;;;;;4898653;29;20795;-67
2021/12/08 05:50:22;;;;;;;6.17;4.30;;;7.40;99.90;;;;;;4898007;29;20472;-67
2021/12/08 05:52:49;;;;;;;6.70;6.27;;;7.50;99.90;;;;;;4898692;29;20403;-68
2021/12/08 05:55:15;;;;;;;6.60;5.27;;;7.60;99.90;;;;;;4881022;29;20412;-68
2021/12/08 05:57:43;;;;;;;6.47;5.13;;;7.60;99.90;;;;;;4898467;29;20425;-68
2021/12/08 06:00:37;;;;;;;11.10;5.43;;;7.70;99.90;;;;;;4897645;29;20426;-68
2021/12/08 06:03:03;;;;;;;5.63;4.97;;;7.70;99.90;;;;;;4897719;29;20477;-68
2021/12/08 06:05:30;;;;;;;6.70;6.00;;;7.90;99.90;;;;;;4898394;29;20424;-68
2021/12/08 06:07:57;;;;;;;11.00;9.90;;;7.80;99.90;;;;;;4897266;29;20475;-69
2021/12/08 06:10:31;;;;;;;8.90;8.10;;;7.80;99.90;;;;;;4898260;29;20419;-67
2021/12/08 06:12:58;;;;;;;7.70;5.13;;;7.80;99.90;;;;;;4897475;29;20419;-68
2021/12/08 06:15:25;;;;;;;5.90;5.40;;;7.90;99.90;;;;;;4881545;29;20458;-68
2021/12/08 06:17:51;;;;;;;5.90;5.40;;;8.00;99.90;;;;;;4898109;29;20412;-68
2021/12/08 06:20:18;;;;;;;7.40;5.17;;;8.00;99.90;;;;;;4897137;29;20929;-68
2021/12/08 06:22:46;;;;;;;4.70;4.40;;;8.10;99.90;;;;;;4897749;29;20415;-67
2021/12/08 06:25:15;;;;;;;5.70;5.20;;;8.10;99.90;;;;;;4897202;29;20424;-68
2021/12/08 06:27:42;;;;;;;5.83;4.97;;;7.90;99.90;;;;;;4897628;29;20461;-68
2021/12/08 06:30:11;;;;;;;7.73;6.90;;;7.90;99.90;;;;;;4896776;29;20776;-68
2021/12/08 06:32:37;;;;;;;5.47;5.07;;;7.90;99.90;;;;;;4897456;29;20445;-68
2021/12/08 06:35:08;;;;;;;6.87;6.17;;;7.70;99.90;;;;;;4896965;29;20419;-68
2021/12/08 06:37:38;;;;;;;7.67;5.63;;;7.70;99.90;;;;;;4881071;29;20459;-68
2021/12/08 06:40:20;;;;;;;5.70;4.50;;;7.80;99.90;;;;;;4896783;29;20502;-67
2021/12/08 06:42:48;;;;;;;4.80;4.40;;;7.70;99.90;;;;;;4897302;29;20810;-67
2021/12/08 06:45:19;;;;;;;7.10;4.90;;;7.60;99.90;;;;;;4880179;29;20498;-67
2021/12/08 06:47:45;;;;;;;4.60;4.20;;;7.60;99.90;;;;;;4897514;29;20439;-67
2021/12/08 06:50:24;;;;;;;5.10;4.70;;;7.70;99.90;;;;;;4896485;29;20410;-67
2021/12/08 06:52:51;;;;;;;4.63;4.23;;;7.60;99.90;;;;;;4897606;29;20414;-67
2021/12/08 06:55:25;;;;;;;5.23;4.83;;;7.60;99.90;;;;;;4896703;29;20421;-67
2021/12/08 06:58:09;;;;;;;6.47;4.40;;;7.50;99.90;;;;;;4880882;29;20406;-67
2021/12/08 07:03:42;;;;;;;5.60;5.10;;;7.60;99.90;;;;;;4897440;29;20478;-67
2021/12/08 07:06:29;;;;;;;4.30;4.00;;;7.60;99.90;;;;;;4896609;29;20454;-67
2021/12/08 07:08:56;;;;;;;7.80;4.80;;;7.50;99.90;;;;;;4880705;29;20414;-69
2021/12/08 07:11:24;;;;;;;4.90;4.47;;;7.40;99.90;;;;;;4896953;29;20418;-67
2021/12/08 07:13:55;;;;;;;4.40;4.07;;;7.50;99.90;;;;;;4897612;29;20457;-66
2021/12/08 07:16:33;;;;;;;4.70;4.30;;;7.60;99.90;;;;;;4880039;29;20404;-69
2021/12/08 07:19:11;;;;;;;5.20;4.20;;;7.50;99.90;;;;;;4896717;29;20402;-73
2021/12/08 07:21:44;;;;;;;4.30;3.90;;;7.60;99.90;;;;;;4897322;29;20455;-67
2021/12/08 07:24:17;;;;;;;5.00;4.50;;;7.50;99.90;;;;;;4896402;29;20918;-70
2021/12/08 07:26:44;;;;;;;9.20;5.70;;;7.40;99.90;;;;;;4897210;29;20516;-70
2021/12/08 07:29:13;;;;;;;5.50;5.10;;;7.60;99.90;;;;;;4896114;29;20414;-70
2021/12/08 07:31:59;;;;;;;4.87;3.97;;;7.50;99.90;;;;;;4897077;29;20422;-70
2021/12/08 07:34:27;;;;;;;5.57;5.07;;;7.70;99.90;;;;;;4897088;29;20911;-69
2021/12/08 07:36:59;;;;;;;4.37;4.07;;;7.80;99.90;;;;;;4897119;29;20923;-70
2021/12/08 07:39:28;;;;;;;4.67;4.27;;;7.80;99.90;;;;;;4896641;29;20442;-70
2021/12/08 07:42:00;;;;;;;5.87;4.30;;;7.70;99.90;;;;;;4897204;29;20420;-70
2021/12/08 07:44:27;;;;;;;5.40;4.43;;;7.60;99.90;;;;;;4897000;29;20423;-69
2021/12/08 07:47:07;;;;;;;5.30;4.90;;;7.40;99.90;;;;;;4896803;29;20465;-69
2021/12/08 07:49:40;;;;;;;4.40;3.93;;;7.50;99.90;;;;;;4897157;29;20781;-69
2021/12/08 07:52:13;;;;;;;4.37;4.00;;;7.50;99.90;;;;;;4895945;29;20444;-70
2021/12/08 07:54:41;;;;;;;6.33;5.90;;;7.50;99.90;;;;;;4899464;29;20427;-69
2021/12/08 07:57:13;;;;;;;7.47;4.60;;;7.50;99.90;;;;;;4899938;29;20878;-69
2021/12/08 07:59:41;;;;;;;5.90;4.17;;;7.40;99.90;;;;;;4900659;29;20410;-70
2021/12/08 08:02:08;;;;;;;4.90;4.60;;;7.50;99.90;;;;;;4883045;29;20485;-70
2021/12/08 08:04:40;;;;;;;4.50;4.10;;;7.70;99.90;;;;;;4900356;29;20481;-69
2021/12/08 08:07:07;;;;;;;4.37;4.00;;;7.80;99.90;;;;;;4899484;29;20573;-70
2021/12/08 08:09:39;;;;;;;4.10;3.70;;;7.90;99.90;;;;;;4900523;29;20414;-70
2021/12/08 08:12:09;;;;;;;5.30;3.97;;;7.90;99.90;;;;;;4899683;29;20486;-70
2021/12/08 08:14:40;;;;;;;4.50;4.10;;;7.90;99.90;;;;;;4883635;29;20421;-69
2021/12/08 08:17:13;;;;;;;4.23;3.77;;;7.90;99.90;;;;;;4899613;29;20399;-70
2021/12/08 08:19:44;;;;;;;4.40;4.00;;;8.00;99.90;;;;;;4900172;29;20764;-70
2021/12/08 08:22:22;;;;;;;9.20;4.63;;;7.90;99.90;;;;;;4899835;29;20407;-70
2021/12/08 08:24:49;;;;;;;3.90;3.63;;;8.00;99.90;;;;;;4900230;29;20433;-69
2021/12/08 08:27:15;;;;;;;3.80;3.50;;;8.10;99.90;;;;;;4899011;29;20474;-70
2021/12/08 08:29:41;;;;;;;4.40;3.73;;;8.10;99.90;;;;;;4900150;29;20424;-69
2021/12/08 08:32:16;;;;;;;3.73;3.33;;;8.10;99.90;;;;;;4899147;29;20434;-70
2021/12/08 08:34:45;;;;;;;5.27;4.50;;;8.20;99.90;;;;;;4900110;29;20546;-70
2021/12/08 08:37:12;;;;;;;4.67;4.37;;;8.30;99.90;;;;;;4899263;29;20938;-70
2021/12/08 08:39:45;;;;;;;4.97;4.67;;;8.20;99.90;;;;;;4899711;29;20419;-69
2021/12/08 08:42:21;;;;;;;4.43;4.03;;;8.40;99.90;;;;;;4899478;29;20884;-70
2021/12/08 08:44:50;;;;;;;5.93;4.20;;;8.40;99.90;;;;;;4899926;29;20437;-70
2021/12/08 08:47:30;;;;;;;4.27;3.97;;;8.20;99.90;;;;;;4898826;29;20459;-69
2021/12/08 08:49:56;;;;;;;4.30;4.00;;;8.30;99.90;;;;;;4899940;29;20400;-70
2021/12/08 08:52:29;;;;;;;4.67;3.90;;;8.30;99.90;;;;;;4898830;29;20427;-70
2021/12/08 08:55:00;;;;;;;8.33;4.60;;;8.30;99.90;;;;;;4899598;29;20451;-72
2021/12/08 08:57:33;;;;;;;5.43;3.90;;;8.40;99.90;;;;;;4898926;29;20416;-72
2021/12/08 09:00:26;;;;;;;4.40;4.00;;;8.80;99.90;;;;;;4899611;29;20414;-72
2021/12/08 09:02:54;;;;;;;5.17;4.87;;;8.90;99.90;;;;;;4899275;29;20497;-71
2021/12/08 09:05:32;;;;;;;5.23;4.83;;;9.20;99.90;;;;;;4898799;29;20427;-72
2021/12/08 09:08:00;;;;;;;4.63;4.20;;;9.50;99.90;;;;;;4899483;29;20455;-72
2021/12/08 09:10:43;;;;;;;5.20;4.43;;;9.70;99.90;;;;;;4898615;29;20438;-72
2021/12/08 09:13:19;;;;;;;4.53;4.10;;;9.80;99.80;;;;;;4898641;29;20411;-72
2021/12/08 09:15:52;;;;;;;4.40;3.70;;;10.00;99.40;;;;;;4882979;29;20414;-71
2021/12/08 09:18:24;;;;;;;5.33;5.00;;;10.00;98.40;;;;;;4898846;29;20498;-72
2021/12/08 09:20:58;;;;;;;6.00;5.70;;;10.00;97.80;;;;;;4899307;29;20414;-71
2021/12/08 09:23:37;;;;;;;7.10;3.90;;;9.80;98.50;;;;;;4898742;29;20432;-72
2021/12/08 09:26:11;;;;;;;4.10;3.70;;;10.00;98.20;;;;;;4899271;29;20454;-71
2021/12/08 09:28:43;;;;;;;3.87;2.70;;;10.20;97.60;;;;;;4899110;29;20965;-71
2021/12/08 09:31:17;;;;;;;3.37;3.17;;;10.30;98.10;;;;;;4898014;29;20777;-72
2021/12/08 09:33:57;;;;;;;3.70;3.30;;;10.40;97.00;;;;;;4899079;29;20427;-72
2021/12/08 09:36:35;;;;;;;4.43;3.63;;;10.30;96.70;;;;;;4898391;29;20775;-72
2021/12/08 09:39:10;;;;;;;12.27;8.07;;;10.50;96.90;;;;;;4899068;29;20417;-71
2021/12/08 09:41:59;;;;;;;9.00;6.43;;;10.50;96.80;;;;;;4898725;29;20513;-72
2021/12/08 09:44:34;;;;;;;4.67;4.17;;;10.50;97.00;;;;;;4881072;29;20411;-72
2021/12/08 09:47:00;;;;;;;4.97;3.80;;;10.20;97.10;;;;;;4898697;29;20520;-71
2021/12/08 09:49:29;;;;;;;4.57;3.10;;;10.10;97.20;;;;;;4897849;29;20966;-72
2021/12/08 09:51:59;;;;;;;4.57;3.83;;;10.00;97.60;;;;;;4898709;29;20423;-72
2021/12/08 09:54:26;;;;;;;4.43;3.10;;;10.10;98.00;;;;;;4897831;29;20434;-71
2021/12/08 09:56:53;;;;;;;5.17;2.87;;;9.80;98.10;;;;;;4881781;29;20512;-73
2021/12/08 09:59:22;;;;;;;5.10;3.33;;;9.60;98.60;;;;;;4897669;29;20426;-72
2021/12/08 10:01:49;;;;;;;3.90;3.50;;;9.80;98.70;;;;;;4898135;29;20425;-72
2021/12/08 10:04:15;;;;;;;3.53;3.33;;;9.90;98.40;;;;;;4897319;29;20499;-72
2021/12/08 10:06:45;;;;;;;3.73;3.43;;;10.10;97.70;;;;;;4898224;29;20561;-72
2021/12/08 10:09:11;;;;;;;4.27;3.73;;;10.20;97.50;;;;;;4897571;29;20426;-73
2021/12/08 10:11:37;;;;;;;3.80;3.40;;;10.40;97.10;;;;;;4898321;29;20416;-72
2021/12/08 10:14:03;;;;;;;3.73;3.30;;;10.20;96.80;;;;;;4898021;29;20941;-71
2021/12/08 10:16:30;;;;;;;3.67;2.63;;;10.00;97.10;;;;;;4897240;29;20425;-71
2021/12/08 10:18:56;;;;;;;4.30;3.87;;;10.20;97.40;;;;;;4898363;29;20931;-72
2021/12/08 10:21:36;;;;;;;5.43;3.70;;;10.30;97.20;;;;;;4897448;29;20459;-72
2021/12/08 10:24:14;;;;;;;6.80;2.93;;;10.20;97.10;;;;;;4898065;29;20410;-72
2021/12/08 10:26:40;;;;;;;5.80;3.10;;;10.20;97.20;;;;;;4897995;29;20544;-72
2021/12/08 10:29:06;;;;;;;5.93;3.00;;;10.20;97.20;;;;;;4898012;29;20494;-72
2021/12/08 10:31:40;;;;;;;4.13;3.70;;;10.30;97.60;;;;;;4897249;29;20626;-72
2021/12/08 10:36:54;;;;;;;4.27;3.20;;;10.10;97.40;;;;;;4898071;29;20438;-73
2021/12/08 10:39:35;;;;;;;3.97;3.60;;;10.00;97.30;;;;;;4897066;29;20420;-72
2021/12/08 10:42:06;;;;;;;3.20;2.90;;;9.80;98.10;;;;;;4897786;29;20404;-73
2021/12/08 10:44:55;;;;;;;4.70;2.90;;;9.50;98.70;;;;;;4880036;29;20998;-73
2021/12/08 10:47:23;;;;;;;3.80;3.60;;;9.60;99.10;;;;;;4896693;29;20817;-73
2021/12/08 10:55:24;;;;;;;4.67;3.17;;;9.40;99.50;;;;;;4896913;29;20416;-73
2021/12/08 10:57:54;;;;;;;5.20;2.73;;;9.50;99.90;;;;;;4897475;29;20512;-73
2021/12/08 11:00:26;;;;;;;6.30;3.50;;;9.50;99.90;;;;;;4896532;29;20400;-73
2021/12/08 11:03:00;;;;;;;3.67;3.30;;;9.50;99.70;;;;;;4897372;29;20469;-73
2021/12/08 11:05:27;;;;;;;2.83;2.60;;;9.50;99.80;;;;;;4896723;29;20416;-73
2021/12/08 11:08:13;;;;;;;3.90;2.83;;;9.60;99.50;;;;;;4897360;29;20639;-73
2021/12/08 11:10:44;;;;;;;5.03;3.07;;;9.60;99.00;;;;;;4897228;29;20905;-73
2021/12/08 11:13:11;;;;;;;4.17;3.07;;;9.50;99.80;;;;;;4897149;29;20403;-75
2021/12/08 11:15:39;;;;;;;7.50;3.70;;;9.40;99.40;;;;;;4897024;29;20502;-73
2021/12/08 11:18:07;;;;;;;4.30;2.93;;;9.40;99.30;;;;;;4897205;29;20973;-73
2021/12/08 11:20:39;;;;;;;4.27;3.70;;;9.20;99.90;;;;;;4896468;29;20563;-73
2021/12/08 11:23:09;;;;;;;3.47;3.17;;;8.90;99.90;;;;;;4897264;29;20434;-73
2021/12/08 11:25:46;;;;;;;5.33;3.40;;;9.00;99.90;;;;;;4896136;29;20486;-73
2021/12/08 11:28:22;;;;;;;5.03;2.80;;;9.00;99.90;;;;;;4863511;29;20452;-76
2021/12/08 11:30:50;;;;;;;4.97;3.30;;;8.90;99.90;;;;;;4880215;29;20459;-72
2021/12/08 11:33:19;;;;;;;4.73;3.20;;;8.80;99.90;;;;;;4896480;29;20427;-73
2021/12/08 11:35:46;;;;;;;4.03;3.70;;;8.70;99.90;;;;;;4897047;29;20519;-73
2021/12/08 11:38:12;;;;;;;3.60;3.30;;;8.40;99.90;;;;;;4896628;29;20778;-77
2021/12/08 11:40:39;;;;;;;3.67;3.43;;;8.40;99.90;;;;;;4896453;29;20435;-72
2021/12/08 11:43:15;;;;;;;4.30;3.60;;;8.30;99.90;;;;;;4896971;29;20463;-72
2021/12/08 11:45:42;;;;;;;7.87;5.50;;;8.30;99.90;;;;;;4897104;29;20404;-72
2021/12/08 11:48:25;;;;;;;6.53;4.10;;;8.30;99.90;;;;;;4896622;29;20474;-72
2021/12/08 11:51:10;;;;;;;3.60;3.30;;;8.40;99.90;;;;;;4896997;29;20399;-70
2021/12/08 11:53:38;;;;;;;452.93;233.80;;;8.40;99.90;;;;;;4895965;29;20438;-70
2021/12/08 11:56:04;;;;;;;10.20;5.60;;;8.50;99.90;;;;;;4879947;29;20535;-70
2021/12/08 11:58:30;;;;;;;6.20;3.67;;;8.40;99.90;;;;;;4896053;29;20518;-70
2021/12/08 12:01:01;;;;;;;5.63;3.70;;;8.50;99.90;;;;;;4896484;29;20498;-70
2021/12/08 12:03:27;;;;;;;6.23;3.30;;;8.70;99.90;;;;;;4896077;29;20562;-70
2021/12/08 12:05:52;;;;;;;5.07;3.07;;;8.80;99.90;;;;;;4896886;29;20443;-70
2021/12/08 12:08:20;;;;;;;5.40;3.67;;;9.00;99.90;;;;;;4895742;29;20268;-70
2021/12/08 12:10:50;;;;;;;4.80;3.63;;;9.20;99.90;;;;;;4896813;29;20530;-70
2021/12/08 12:13:17;;;;;;;9.43;3.23;;;9.30;99.80;;;;;;4896235;29;20427;-76
2021/12/08 12:15:48;;;;;;;5.93;3.30;;;9.20;99.50;;;;;;4896950;29;20420;-69
2021/12/08 12:18:20;;;;;;;4.67;2.90;;;9.20;99.40;;;;;;4896534;29;20502;-75
2021/12/08 12:20:55;;;;;;;5.70;3.00;;;9.30;99.70;;;;;;4897017;29;20404;-69
2021/12/08 12:23:48;;;;;;;4.70;3.17;;;9.10;98.90;;;;;;4896202;29;20434;-69
2021/12/08 12:26:45;;;;;;;3.00;2.80;;;8.90;99.20;;;;;;4896603;29;20412;-75
2021/12/08 12:29:38;;;;;;;2.87;2.67;;;9.10;99.70;;;;;;4895790;29;20435;-69
2021/12/08 12:32:30;;;;;;;101.63;56.03;;;9.30;99.20;;;;;;4896693;29;20446;-70
2021/12/08 12:35:30;;;;;;;9.57;5.93;;;9.40;98.70;;;;;;4896656;29;20412;-69
2021/12/08 12:38:00;;;;;;;5.87;3.13;;;9.50;98.40;;;;;;4840050;29;20981;-70
2021/12/08 12:40:51;;;;;;;3.10;2.90;;;9.60;98.20;;;;;;4865596;29;20429;-70
2021/12/08 12:43:29;;;;;;;3.80;3.00;;;9.70;98.00;;;;;;4898560;29;20434;-76
2021/12/08 12:46:13;;;;;;;3.43;2.80;;;9.80;97.40;;;;;;4867849;29;20538;-69
2021/12/08 12:48:39;;;;;;;4.33;2.60;;;9.70;97.50;;;;;;4899062;29;20547;-69
2021/12/08 12:51:14;;;;;;;3.60;3.07;;;9.70;97.60;;;;;;4899846;29;20430;-69
2021/12/08 12:53:53;;;;;;;2.80;2.60;;;9.80;97.30;;;;;;4899111;29;20409;-69
2021/12/08 12:56:28;;;;;;;5.97;4.57;;;9.80;97.20;;;;;;4899128;29;20806;-75
2021/12/08 12:59:10;;;;;;;6.80;2.97;;;9.80;97.10;;;;;;4899039;29;20425;-69
2021/12/08 13:01:43;;;;;;;4.00;3.70;;;9.80;97.20;;;;;;4899422;29;20480;-69
2021/12/08 13:04:20;;;;;;;3.67;3.40;;;9.80;96.80;;;;;;4899957;29;20995;-69
2021/12/08 13:06:50;;;;;;;3.80;3.50;;;9.60;97.00;;;;;;4882980;29;20455;-69
2021/12/08 13:09:41;;;;;;;4.37;3.13;;;9.80;97.10;;;;;;4900059;29;20936;-75
2021/12/08 13:12:45;;;;;;;4.10;3.70;;;9.70;96.80;;;;;;4899744;29;20473;-69
2021/12/08 13:15:25;;;;;;;3.70;2.73;;;9.70;96.70;;;;;;4899681;29;20875;-69
2021/12/08 13:18:11;;;;;;;4.57;3.00;;;9.60;96.90;;;;;;4899674;29;20499;-69
2021/12/08 13:20:42;;;;;;;3.23;2.93;;;9.60;97.00;;;;;;4882251;29;20468;-69
2021/12/08 13:23:10;;;;;;;8.73;3.10;;;9.60;96.90;;;;;;4899430;29;20422;-70
2021/12/08 13:25:46;;;;;;;4.37;2.37;;;9.70;96.70;;;;;;4898865;29;20448;-70
2021/12/08 13:28:14;;;;;;;7.23;3.40;;;9.80;96.70;;;;;;4899344;29;20511;-70
2021/12/08 13:31:08;;;;;;;3.37;3.07;;;9.90;96.40;;;;;;4898623;29;20965;-70
2021/12/08 13:33:36;;;;;;;10.03;3.30;;;9.90;96.50;;;;;;4891371;29;20835;-69
2021/12/08 13:36:22;;;;;;;3.30;3.00;;;9.80;95.80;;;;;;4899318;29;20768;-69
2021/12/08 13:38:53;;;;;;;2.77;2.30;;;9.80;95.80;;;;;;4898968;29;20423;-69
2021/12/08 13:41:21;;;;;;;5.60;3.10;;;9.90;95.80;;;;;;4898630;29;20419;-72
2021/12/08 13:43:51;;;;;;;5.63;2.40;;;9.70;95.50;;;;;;4899292;29;20420;-70
2021/12/08 13:46:40;;;;;;;4.93;2.87;;;9.60;95.90;;;;;;4898928;29;20791;-71
2021/12/08 13:49:26;;;;;;;3.83;3.47;;;9.60;96.30;;;;;;4899428;29;20936;-69
2021/12/08 13:52:07;;;;;;;3.77;3.40;;;9.70;96.30;;;;;;4898374;29;20400;-69
2021/12/08 13:54:54;;;;;;;3.10;2.80;;;9.70;95.80;;;;;;4881651;29;20425;-70
2021/12/08 13:57:30;;;;;;;3.00;2.80;;;9.70;96.10;;;;;;4898529;29;20415;-76
2021/12/08 13:59:59;;;;;;;4.17;2.73;;;9.70;95.70;;;;;;4881525;29;20411;-70
2021/12/08 14:02:43;;;;;;;6.53;3.33;;;9.70;95.70;;;;;;4897330;29;20792;-69
2021/12/08 14:05:29;;;;;;;4.07;3.20;;;9.70;95.90;;;;;;4861026;29;20464;-70
2021/12/08 14:07:57;;;;;;;3.53;3.10;;;9.70;95.90;;;;;;4861608;29;20450;-70
2021/12/08 14:10:29;;;;;;;6.30;3.97;;;9.60;95.60;;;;;;4860891;29;20858;-70